Time;durP1;ratioP1;P1;durP2;ratioP2;P2;SDS_P1;SDS_P2;PMS_P1;PMS_P2;Temp;Humidity;BMP_temperature;BMP_pressure;BME280_temperature;BME280_humidity;BME280_pressure;Samples;Min_cycle;Max_cycle;Signal;HPM_P1;HPM_P2
2023/01/19 00:00:04;;;;;;;17.23;9.17;;;1.60;99.90;;;;;;5033414;28;20033;-53
2023/01/19 00:02:32;;;;;;;15.63;9.20;;;1.60;99.90;;;;;;5033450;28;20414;-53
2023/01/19 00:04:58;;;;;;;16.63;8.90;;;1.60;99.90;;;;;;5033242;28;20040;-52
2023/01/19 00:07:24;;;;;;;16.03;9.33;;;1.60;99.90;;;;;;5033586;28;20669;-49
2023/01/19 00:09:49;;;;;;;15.57;9.27;;;1.60;99.90;;;;;;5033368;28;20144;-50
2023/01/19 00:12:15;;;;;;;14.60;8.73;;;1.60;99.90;;;;;;5033067;28;20041;-52
2023/01/19 00:14:41;;;;;;;20.40;9.10;;;1.60;99.90;;;;;;5032968;28;20095;-49
2023/01/19 00:17:07;;;;;;;17.53;9.40;;;1.60;99.90;;;;;;5032855;28;20470;-52
2023/01/19 00:19:32;;;;;;;16.13;9.20;;;1.60;99.90;;;;;;5033252;28;20029;-52
2023/01/19 00:21:58;;;;;;;19.17;9.27;;;1.50;99.90;;;;;;5033079;28;20037;-51
2023/01/19 00:24:24;;;;;;;19.30;10.33;;;1.50;99.90;;;;;;5032662;28;20406;-51
2023/01/19 00:26:49;;;;;;;15.33;8.87;;;1.40;99.90;;;;;;5032916;28;20037;-53
2023/01/19 00:29:15;;;;;;;17.37;9.90;;;1.30;99.90;;;;;;5032726;28;20033;-52
2023/01/19 00:31:41;;;;;;;18.20;9.37;;;1.40;99.90;;;;;;5033055;28;20303;-50
2023/01/19 00:34:07;;;;;;;15.77;9.40;;;1.40;99.90;;;;;;5032591;28;20056;-52
2023/01/19 00:36:33;;;;;;;16.33;9.57;;;1.40;99.90;;;;;;5032621;28;20083;-52
2023/01/19 00:38:59;;;;;;;16.77;9.50;;;1.40;99.90;;;;;;5032759;28;20021;-52
2023/01/19 00:44:10;;;;;;;15.50;9.43;;;1.40;99.90;;;;;;5032381;28;20029;-51
2023/01/19 00:46:37;;;;;;;18.87;10.20;;;1.40;99.90;;;;;;5032361;28;20240;-53
2023/01/19 00:49:03;;;;;;;14.87;8.47;;;1.50;99.90;;;;;;5032524;28;20510;-52
2023/01/19 00:51:29;;;;;;;19.77;9.37;;;1.50;99.90;;;;;;5032463;28;20029;-48
2023/01/19 00:53:54;;;;;;;22.13;11.27;;;1.50;99.90;;;;;;5032057;28;20083;-49
2023/01/19 00:56:20;;;;;;;18.93;9.80;;;1.50;99.90;;;;;;5032189;28;20079;-52
2023/01/19 00:58:46;;;;;;;16.87;9.83;;;1.50;99.90;;;;;;5032283;28;20034;-51
2023/01/19 01:01:13;;;;;;;17.27;9.40;;;1.40;99.90;;;;;;5032241;28;20398;-51
2023/01/19 01:03:38;;;;;;;20.17;10.43;;;1.50;99.90;;;;;;5032217;28;20045;-51
2023/01/19 01:06:07;;;;;;;18.10;10.30;;;1.50;99.90;;;;;;5032221;28;20398;-51
2023/01/19 01:08:33;;;;;;;16.33;9.13;;;1.40;99.90;;;;;;5031956;28;20022;-54
2023/01/19 01:10:59;;;;;;;20.73;10.00;;;1.50;99.90;;;;;;5032410;28;20052;-53
2023/01/19 01:13:26;;;;;;;18.67;10.10;;;1.40;99.90;;;;;;5031967;28;20041;-51
2023/01/19 01:15:54;;;;;;;18.60;8.80;;;1.40;99.90;;;;;;5032154;28;20112;-52
2023/01/19 01:18:20;;;;;;;17.30;9.47;;;1.40;99.90;;;;;;5031858;28;20040;-51
2023/01/19 01:20:46;;;;;;;19.67;9.60;;;1.50;99.90;;;;;;5031978;28;20390;-51
2023/01/19 01:23:12;;;;;;;10.50;5.10;;;1.50;99.90;;;;;;5031599;28;20048;-50
2023/01/19 01:25:38;;;;;;;17.00;9.50;;;1.50;99.90;;;;;;5031722;28;20095;-52
2023/01/19 01:28:07;;;;;;;17.23;9.47;;;1.50;99.90;;;;;;5031602;28;20030;-54
2023/01/19 01:30:39;;;;;;;14.55;9.48;;;1.50;99.90;;;;;;5031468;28;20402;-52
2023/01/19 01:33:07;;;;;;;18.77;9.57;;;1.50;99.90;;;;;;5031622;28;20048;-53
2023/01/19 01:35:32;;;;;;;13.57;7.33;;;1.60;99.90;;;;;;5031388;28;20030;-52
2023/01/19 01:37:59;;;;;;;15.40;8.87;;;1.60;99.90;;;;;;5031471;28;20037;-51
2023/01/19 01:40:27;;;;;;;17.53;9.73;;;1.60;99.90;;;;;;5031521;28;20486;-49
2023/01/19 01:42:53;;;;;;;17.87;9.53;;;1.60;99.90;;;;;;5031527;28;20289;-54
2023/01/19 01:45:24;;;;;;;19.20;10.03;;;1.60;99.90;;;;;;5031347;28;20499;-53
2023/01/19 01:47:51;;;;;;;16.17;9.30;;;1.60;99.90;;;;;;5031203;28;20080;-53
2023/01/19 01:50:21;;;;;;;16.77;9.20;;;1.60;99.90;;;;;;5031317;28;20512;-54
2023/01/19 01:53:07;;;;;;;;;;;1.60;99.90;;;;;;5031770;28;20517;-50
2023/01/19 01:55:36;;;;;;;19.03;9.43;;;1.70;99.90;;;;;;5030478;28;19915;-53
2023/01/19 01:58:03;;;;;;;16.38;9.85;;;1.70;99.90;;;;;;5031088;28;20026;-53
2023/01/19 02:02:49;;;;;;;18.23;10.10;;;1.70;99.90;;;;;;5031068;28;20029;-53
2023/01/19 02:03:21;;;;;;;18.48;9.40;;;1.70;99.90;;;;;;5031073;28;20029;-50
2023/01/19 02:05:47;;;;;;;17.67;9.93;;;1.70;99.90;;;;;;5031473;28;20080;-54
2023/01/19 02:13:49;;;;;;;15.73;9.20;;;1.60;99.90;;;;;;5030650;28;20124;-51
2023/01/19 02:16:15;;;;;;;15.40;9.67;;;1.60;99.90;;;;;;5031117;28;20120;-50
2023/01/19 02:18:42;;;;;;;16.33;10.07;;;1.60;99.90;;;;;;5030670;28;20081;-52
2023/01/19 02:21:28;;;;;;;17.50;9.47;;;1.60;99.90;;;;;;5029597;28;20021;-52
2023/01/19 02:23:56;;;;;;;18.73;10.03;;;1.60;99.90;;;;;;5030520;28;20088;-51
2023/01/19 02:26:27;;;;;;;15.07;8.93;;;1.60;99.90;;;;;;5030569;28;20125;-51
2023/01/19 02:29:23;;;;;;;14.90;9.37;;;1.60;99.90;;;;;;5030786;28;20045;-52
2023/01/19 02:31:51;;;;;;;18.53;9.73;;;1.60;99.90;;;;;;5018167;28;20092;-53
2023/01/19 02:34:19;;;;;;;23.27;10.13;;;1.50;99.90;;;;;;5030514;28;20441;-51
2023/01/19 02:36:55;;;;;;;17.70;10.20;;;1.60;99.90;;;;;;5030830;28;20060;-52
2023/01/19 02:39:29;;;;;;;19.63;10.13;;;1.50;99.90;;;;;;5030617;28;20045;-49
2023/01/19 02:42:01;;;;;;;18.40;9.93;;;1.50;99.90;;;;;;5030564;28;20041;-54
2023/01/19 02:44:29;;;;;;;16.27;9.70;;;1.60;99.90;;;;;;5029548;28;20390;-50
2023/01/19 02:46:55;;;;;;;18.67;9.80;;;1.50;99.90;;;;;;5030286;28;20108;-52
2023/01/19 02:49:22;;;;;;;17.43;9.60;;;1.50;99.90;;;;;;5030451;28;20032;-53
2023/01/19 02:51:48;;;;;;;19.73;10.07;;;1.60;99.90;;;;;;5030561;28;20052;-51
2023/01/19 02:54:44;;;;;;;15.77;10.40;;;1.60;99.90;;;;;;5030192;28;20030;-54
2023/01/19 02:57:34;;;;;;;14.97;8.37;;;1.50;99.90;;;;;;5030480;28;20105;-52
2023/01/19 03:00:25;;;;;;;19.13;9.87;;;1.60;99.90;;;;;;5030407;28;20029;-52
2023/01/19 03:03:09;;;;;;;17.77;9.97;;;1.50;99.90;;;;;;5030421;28;20397;-51
2023/01/19 03:06:07;;;;;;;19.20;9.93;;;1.50;99.90;;;;;;5030366;28;20568;-49
2023/01/19 03:08:43;;;;;;;19.37;10.33;;;1.50;99.90;;;;;;5018419;28;20041;-49
2023/01/19 03:11:11;;;;;;;17.07;9.90;;;1.50;99.90;;;;;;5030344;28;20040;-49
2023/01/19 03:13:49;;;;;;;18.67;10.13;;;1.50;99.90;;;;;;5029848;28;20101;-49
2023/01/19 03:16:20;;;;;;;16.27;9.47;;;1.50;99.90;;;;;;5030265;28;20030;-54
2023/01/19 03:18:52;;;;;;;22.63;9.77;;;1.50;99.90;;;;;;5030233;28;20037;-52
2023/01/19 03:21:20;;;;;;;21.13;10.50;;;1.50;99.90;;;;;;5030214;28;20034;-51
2023/01/19 03:23:49;;;;;;;20.20;9.83;;;1.50;99.90;;;;;;5041419;23;20318;-47
2023/01/19 03:26:19;;;;;;;17.90;9.67;;;1.50;99.90;;;;;;5029444;28;20625;-48
2023/01/19 03:28:47;;;;;;;19.67;9.37;;;1.50;99.90;;;;;;5029326;28;20052;-47
2023/01/19 03:31:17;;;;;;;22.20;9.27;;;1.50;99.90;;;;;;5029286;28;20025;-49
2023/01/19 03:33:47;;;;;;;20.05;10.23;;;1.50;99.90;;;;;;5028902;28;20032;-48
2023/01/19 03:36:19;;;;;;;20.23;9.90;;;1.50;99.90;;;;;;5029541;28;20107;-47
2023/01/19 03:38:47;;;;;;;18.87;11.03;;;1.50;99.90;;;;;;5029283;28;20030;-50
2023/01/19 03:41:15;;;;;;;20.70;10.10;;;1.50;99.90;;;;;;5029089;28;20045;-49
2023/01/19 03:43:42;;;;;;;20.03;10.27;;;1.50;99.90;;;;;;5028754;28;20021;-47
2023/01/19 03:46:09;;;;;;;15.57;8.83;;;1.60;99.90;;;;;;5029062;28;20041;-45
2023/01/19 03:48:36;;;;;;;18.83;9.63;;;1.70;99.90;;;;;;5028561;28;20041;-47
2023/01/19 03:51:05;;;;;;;21.03;10.70;;;1.70;99.90;;;;;;5028879;28;20045;-45
2023/01/19 03:53:30;;;;;;;21.37;10.93;;;1.70;99.90;;;;;;5028523;28;20033;-48
2023/01/19 03:55:56;;;;;;;20.17;10.33;;;1.80;99.90;;;;;;5032257;28;20038;-49
2023/01/19 03:58:22;;;;;;;23.73;11.50;;;1.80;99.90;;;;;;5032141;28;20083;-51
2023/01/19 04:00:48;;;;;;;23.30;10.90;;;1.80;99.90;;;;;;5032209;28;20379;-46
2023/01/19 04:03:15;;;;;;;24.27;11.23;;;1.80;99.90;;;;;;5032124;28;20120;-50
2023/01/19 04:05:41;;;;;;;22.07;11.77;;;1.70;99.90;;;;;;5031998;28;20121;-47
2023/01/19 04:08:07;;;;;;;24.37;11.50;;;1.60;99.90;;;;;;5031983;28;20041;-46
2023/01/19 04:10:33;;;;;;;23.47;11.10;;;1.60;99.90;;;;;;5032404;28;20099;-45
2023/01/19 04:13:00;;;;;;;30.80;13.27;;;1.50;99.90;;;;;;5031922;28;20037;-46
2023/01/19 04:15:27;;;;;;;30.67;14.33;;;1.40;99.90;;;;;;5031844;28;20390;-45
2023/01/19 04:17:55;;;;;;;29.93;12.67;;;1.40;99.90;;;;;;5031658;28;20660;-52
2023/01/19 04:20:21;;;;;;;24.57;12.17;;;1.40;99.90;;;;;;5032025;28;20448;-47
2023/01/19 04:22:48;;;;;;;32.30;13.17;;;1.30;99.90;;;;;;5031898;28;20041;-45
2023/01/19 04:25:14;;;;;;;26.30;12.03;;;1.30;99.90;;;;;;4988439;28;1266684;-48
2023/01/19 04:27:40;;;;;;;26.37;11.33;;;1.20;99.90;;;;;;5032711;28;20033;-48
2023/01/19 04:30:08;;;;;;;35.50;14.57;;;1.10;99.90;;;;;;5032973;28;20112;-45
2023/01/19 04:32:34;;;;;;;31.37;14.13;;;1.00;99.90;;;;;;5032631;28;20116;-47
2023/01/19 04:35:00;;;;;;;29.67;13.50;;;1.00;99.90;;;;;;5032596;28;20128;-47
2023/01/19 04:37:26;;;;;;;36.17;15.17;;;1.00;99.90;;;;;;5032642;28;20310;-50
2023/01/19 04:39:51;;;;;;;32.60;14.77;;;0.90;99.90;;;;;;5032727;28;20045;-47
2023/01/19 04:42:17;;;;;;;30.47;14.90;;;0.90;99.90;;;;;;5032623;28;20462;-45
2023/01/19 04:44:43;;;;;;;31.43;14.83;;;0.90;99.90;;;;;;5032420;28;20033;-45
2023/01/19 04:47:09;;;;;;;37.70;15.90;;;0.90;99.90;;;;;;5032362;28;20497;-45
2023/01/19 04:49:37;;;;;;;36.93;17.03;;;0.90;99.90;;;;;;5033119;28;20109;-45
2023/01/19 04:52:06;;;;;;;36.77;18.27;;;0.90;99.90;;;;;;5032630;28;20501;-45
2023/01/19 04:54:32;;;;;;;38.63;17.88;;;0.90;99.90;;;;;;5032251;28;20026;-45
2023/01/19 04:56:57;;;;;;;40.10;18.30;;;1.00;99.90;;;;;;5032291;28;20080;-45
2023/01/19 04:59:23;;;;;;;44.07;18.13;;;0.90;99.90;;;;;;5032311;28;20029;-45
2023/01/19 05:01:49;;;;;;;36.57;16.50;;;1.00;99.90;;;;;;5032332;28;20037;-50
2023/01/19 05:04:15;;;;;;;38.20;17.10;;;1.00;99.90;;;;;;5032180;28;20022;-47
2023/01/19 05:06:40;;;;;;;35.10;16.13;;;1.00;99.90;;;;;;5031227;28;20052;-47
2023/01/19 05:09:07;;;;;;;34.60;16.57;;;1.00;99.90;;;;;;5032213;28;20029;-47
2023/01/19 05:11:34;;;;;;;34.97;14.67;;;1.00;99.90;;;;;;5032149;28;20032;-52
2023/01/19 05:14:00;;;;;;;34.77;15.43;;;1.10;99.90;;;;;;5032217;28;20072;-49
2023/01/19 05:16:26;;;;;;;29.93;14.27;;;1.00;99.90;;;;;;5031943;28;20064;-49
2023/01/19 05:18:51;;;;;;;30.83;14.50;;;1.00;99.90;;;;;;5032046;28;20075;-47
2023/01/19 05:21:17;;;;;;;30.33;13.83;;;1.00;99.90;;;;;;5032085;28;20344;-49
2023/01/19 05:23:43;;;;;;;28.63;13.27;;;0.90;99.90;;;;;;5031481;28;20040;-49
2023/01/19 05:26:09;;;;;;;30.60;14.03;;;0.90;99.90;;;;;;5032033;28;20284;-47
2023/01/19 05:28:34;;;;;;;30.73;14.33;;;0.80;99.90;;;;;;5031580;28;20032;-46
2023/01/19 05:31:00;;;;;;;24.73;12.07;;;0.70;99.90;;;;;;5031869;28;20044;-47
2023/01/19 05:33:26;;;;;;;26.60;13.43;;;0.70;99.90;;;;;;5031299;28;20034;-49
2023/01/19 05:35:52;;;;;;;25.17;11.97;;;0.70;99.90;;;;;;5031519;28;20030;-45
2023/01/19 05:38:19;;;;;;;27.77;12.90;;;0.70;99.90;;;;;;5031456;28;20095;-49
2023/01/19 05:40:45;;;;;;;24.33;12.43;;;0.70;99.90;;;;;;5031408;28;20048;-45
2023/01/19 05:43:12;;;;;;;23.73;11.40;;;0.70;99.90;;;;;;5031477;28;20095;-47
2023/01/19 05:45:38;;;;;;;24.00;12.40;;;0.70;99.90;;;;;;5031320;28;20116;-48
2023/01/19 05:48:05;;;;;;;21.90;11.43;;;0.60;99.90;;;;;;5031371;28;20108;-52
2023/01/19 05:50:31;;;;;;;22.83;12.00;;;0.70;99.90;;;;;;5031396;28;20367;-51
2023/01/19 05:52:57;;;;;;;24.23;11.50;;;0.70;99.90;;;;;;5031373;28;20029;-45
2023/01/19 05:55:23;;;;;;;23.03;11.17;;;0.80;99.90;;;;;;5031021;28;20462;-50
2023/01/19 05:57:48;;;;;;;22.43;11.10;;;0.80;99.90;;;;;;5031044;28;20029;-50
2023/01/19 06:00:15;;;;;;;21.00;11.97;;;0.80;99.90;;;;;;5031224;28;20025;-48
2023/01/19 06:02:41;;;;;;;20.90;10.93;;;0.80;99.90;;;;;;5031300;28;20038;-46
2023/01/19 06:05:07;;;;;;;19.97;10.47;;;0.80;99.90;;;;;;5031097;28;20030;-51
2023/01/19 06:07:32;;;;;;;18.13;9.73;;;0.80;99.90;;;;;;5030890;28;20029;-47
2023/01/19 06:09:58;;;;;;;18.63;10.37;;;0.80;99.90;;;;;;5031031;28;20033;-48
2023/01/19 06:12:24;;;;;;;15.77;8.93;;;0.70;99.90;;;;;;5029664;28;20127;-51
2023/01/19 06:14:50;;;;;;;19.53;9.50;;;0.80;99.90;;;;;;5030785;28;20052;-46
2023/01/19 06:17:16;;;;;;;15.10;8.97;;;0.70;99.90;;;;;;5030752;28;20025;-49
2023/01/19 06:19:41;;;;;;;19.17;9.60;;;0.70;99.90;;;;;;5030969;28;20037;-48
2023/01/19 06:22:07;;;;;;;18.17;9.47;;;0.80;99.90;;;;;;5030986;28;20040;-47
2023/01/19 06:24:33;;;;;;;17.63;9.10;;;0.80;99.90;;;;;;5030460;28;20540;-46
2023/01/19 06:26:59;;;;;;;18.87;8.70;;;0.90;99.90;;;;;;5030618;28;20029;-49
2023/01/19 06:29:28;;;;;;;18.10;9.53;;;0.90;99.90;;;;;;5031044;28;20042;-48
2023/01/19 06:31:54;;;;;;;16.67;8.88;;;0.80;99.90;;;;;;5030734;28;20022;-50
2023/01/19 06:34:20;;;;;;;17.97;9.00;;;0.80;99.90;;;;;;5030539;28;20041;-47
2023/01/19 06:36:46;;;;;;;17.23;9.10;;;0.80;99.90;;;;;;5030327;28;20017;-49
2023/01/19 06:39:12;;;;;;;16.13;8.50;;;0.80;99.90;;;;;;5030579;28;20420;-48
2023/01/19 06:41:38;;;;;;;16.77;8.67;;;0.80;99.90;;;;;;5030583;28;20033;-53
2023/01/19 06:44:04;;;;;;;15.50;8.27;;;0.80;99.90;;;;;;5030337;28;20037;-49
2023/01/19 06:46:31;;;;;;;14.83;8.40;;;0.90;99.90;;;;;;5030517;28;20048;-49
2023/01/19 06:48:56;;;;;;;16.20;8.90;;;0.90;99.90;;;;;;5029250;28;20037;-46
2023/01/19 06:51:23;;;;;;;15.23;8.77;;;0.90;99.90;;;;;;5030536;28;20031;-45
2023/01/19 06:53:49;;;;;;;15.33;8.67;;;0.90;99.90;;;;;;5030444;28;20049;-46
2023/01/19 06:56:15;;;;;;;15.53;9.03;;;1.00;99.90;;;;;;5030344;28;20516;-51
2023/01/19 06:58:41;;;;;;;14.73;8.93;;;1.00;99.90;;;;;;5030193;28;20025;-48
2023/01/19 07:01:07;;;;;;;16.97;8.80;;;1.00;99.90;;;;;;5030444;28;20029;-47
2023/01/19 07:03:34;;;;;;;16.80;9.57;;;1.00;99.90;;;;;;5030156;28;20030;-46
2023/01/19 07:06:01;;;;;;;16.33;8.90;;;1.10;99.90;;;;;;5030753;28;20048;-48
2023/01/19 07:08:28;;;;;;;16.97;9.83;;;1.10;99.90;;;;;;5030255;28;20032;-50
2023/01/19 07:11:04;;;;;;;20.17;11.80;;;1.20;99.90;;;;;;5030192;28;20065;-50
2023/01/19 07:13:31;;;;;;;27.77;13.20;;;1.20;99.90;;;;;;5030107;28;20060;-51
2023/01/19 07:15:57;;;;;;;23.43;11.80;;;1.10;99.90;;;;;;5030378;28;20060;-46
2023/01/19 07:18:23;;;;;;;24.83;12.00;;;1.10;99.90;;;;;;5030228;28;20076;-50
2023/01/19 07:20:48;;;;;;;21.50;11.50;;;1.10;99.90;;;;;;5030158;28;20462;-48
2023/01/19 07:23:15;;;;;;;23.27;10.60;;;1.10;99.90;;;;;;5029994;28;20049;-49
2023/01/19 07:25:44;;;;;;;24.23;10.70;;;1.10;99.90;;;;;;5029876;28;20528;-50
2023/01/19 07:28:11;;;;;;;20.20;10.13;;;1.20;99.90;;;;;;5030155;28;20068;-49
2023/01/19 07:30:37;;;;;;;22.90;9.93;;;1.20;99.90;;;;;;5033304;28;20029;-48
2023/01/19 07:33:03;;;;;;;16.77;9.60;;;1.30;99.90;;;;;;5034075;28;20397;-47
2023/01/19 07:35:28;;;;;;;23.50;10.40;;;1.30;99.90;;;;;;5033774;28;20128;-49
2023/01/19 07:37:54;;;;;;;20.17;10.57;;;1.30;99.90;;;;;;5033604;28;20029;-49
2023/01/19 07:40:20;;;;;;;23.80;11.73;;;1.20;99.90;;;;;;5034100;28;20528;-51
2023/01/19 07:42:47;;;;;;;25.43;11.80;;;1.30;99.90;;;;;;5034008;28;20033;-47
2023/01/19 07:45:14;;;;;;;23.17;12.40;;;1.30;99.90;;;;;;5033686;28;20355;-49
2023/01/19 07:47:43;;;;;;;24.20;12.90;;;1.30;99.90;;;;;;5033658;28;20044;-50
2023/01/19 07:50:10;;;;;;;29.83;13.53;;;1.30;99.90;;;;;;5033667;28;20025;-48
2023/01/19 07:52:36;;;;;;;24.30;12.27;;;1.30;99.90;;;;;;5033525;28;20037;-46
2023/01/19 07:55:01;;;;;;;25.83;13.43;;;1.20;99.90;;;;;;5033336;28;20532;-50
2023/01/19 07:57:27;;;;;;;29.43;13.53;;;1.20;99.90;;;;;;5033414;28;20049;-51
2023/01/19 07:59:53;;;;;;;27.03;13.93;;;1.20;99.90;;;;;;5033513;28;20072;-52
2023/01/19 08:02:18;;;;;;;26.67;13.23;;;1.30;99.90;;;;;;5033598;28;20075;-45
2023/01/19 08:04:47;;;;;;;29.90;13.80;;;1.30;99.90;;;;;;5033160;28;20095;-47
2023/01/19 08:07:12;;;;;;;26.33;12.67;;;1.30;99.90;;;;;;5033679;28;20025;-48
2023/01/19 08:09:38;;;;;;;26.57;13.50;;;1.40;99.90;;;;;;5033515;28;20509;-49
2023/01/19 08:12:04;;;;;;;27.10;13.40;;;1.30;99.90;;;;;;5033297;28;20498;-48
2023/01/19 08:14:29;;;;;;;28.23;14.80;;;1.40;99.90;;;;;;5031763;28;20033;-50
2023/01/19 08:17:02;;;;;;;29.33;14.90;;;1.40;99.90;;;;;;5033032;28;20029;-50
2023/01/19 08:19:28;;;;;;;27.47;13.90;;;1.30;99.90;;;;;;5033110;28;20148;-50
2023/01/19 08:21:55;;;;;;;28.13;14.50;;;1.30;99.90;;;;;;5033166;28;20037;-48
2023/01/19 08:24:24;;;;;;;33.30;15.93;;;1.40;99.90;;;;;;5032769;28;20451;-46
2023/01/19 08:26:56;;;;;;;20.50;10.45;;;1.40;99.90;;;;;;5033123;28;20450;-49
2023/01/19 08:29:22;;;;;;;26.70;13.50;;;1.40;99.90;;;;;;5033034;28;20029;-48
2023/01/19 08:31:48;;;;;;;26.77;12.27;;;1.40;99.90;;;;;;5033588;28;20028;-52
2023/01/19 08:34:13;;;;;;;24.83;13.37;;;1.50;99.90;;;;;;5032620;28;20474;-53
2023/01/19 08:36:39;;;;;;;23.87;13.67;;;1.60;99.90;;;;;;5032772;28;20065;-45
2023/01/19 08:39:05;;;;;;;22.93;12.97;;;1.50;99.90;;;;;;5032905;28;20112;-51
2023/01/19 08:41:31;;;;;;;25.17;13.17;;;1.60;99.90;;;;;;5031594;28;20034;-49
2023/01/19 08:43:57;;;;;;;24.90;13.60;;;1.50;99.90;;;;;;5032517;28;20036;-47
2023/01/19 08:46:22;;;;;;;26.77;14.17;;;1.50;99.90;;;;;;5032514;28;20025;-50
2023/01/19 08:48:49;;;;;;;25.20;12.83;;;1.50;99.90;;;;;;5032571;28;20163;-47
2023/01/19 08:51:15;;;;;;;24.37;13.80;;;1.60;99.90;;;;;;5032635;28;20037;-48
2023/01/19 08:53:42;;;;;;;26.50;13.73;;;1.60;99.90;;;;;;5032278;28;20037;-50
2023/01/19 08:56:13;;;;;;;23.57;12.87;;;1.60;99.90;;;;;;5032553;28;20036;-46
2023/01/19 08:58:44;;;;;;;23.53;13.00;;;1.70;99.90;;;;;;5032309;28;20024;-49
2023/01/19 09:01:15;;;;;;;22.20;12.80;;;1.70;99.90;;;;;;5032297;28;20398;-45
2023/01/19 09:03:42;;;;;;;26.17;13.30;;;1.70;99.90;;;;;;5031045;28;20414;-47
2023/01/19 09:06:09;;;;;;;28.47;13.53;;;1.70;99.90;;;;;;5032517;28;20029;-47
2023/01/19 09:08:35;;;;;;;24.67;12.80;;;1.70;99.90;;;;;;5032400;28;20037;-48
2023/01/19 09:11:01;;;;;;;25.20;13.30;;;1.70;99.90;;;;;;5032303;28;20103;-46
2023/01/19 09:13:27;;;;;;;21.40;13.03;;;1.70;99.90;;;;;;5032332;28;20041;-48
2023/01/19 09:15:53;;;;;;;25.10;13.63;;;1.70;99.90;;;;;;5032116;28;20037;-50
2023/01/19 09:18:21;;;;;;;25.43;13.43;;;1.70;99.90;;;;;;5032066;28;20033;-49
2023/01/19 09:20:48;;;;;;;23.80;12.90;;;1.60;99.90;;;;;;5031993;28;20033;-46
2023/01/19 09:23:17;;;;;;;24.90;13.07;;;1.60;99.90;;;;;;5031975;28;20025;-47
2023/01/19 09:25:45;;;;;;;27.77;13.88;;;1.60;99.90;;;;;;5031775;28;20456;-51
2023/01/19 09:28:13;;;;;;;26.53;14.13;;;1.60;99.90;;;;;;5031707;28;20099;-44
2023/01/19 09:30:41;;;;;;;28.30;14.63;;;1.60;99.90;;;;;;5031981;28;20475;-45
2023/01/19 09:33:09;;;;;;;27.93;14.73;;;1.60;99.90;;;;;;5031663;28;20052;-46
2023/01/19 09:35:37;;;;;;;31.20;15.02;;;1.60;99.90;;;;;;5031733;28;20026;-48
2023/01/19 09:38:03;;;;;;;34.53;15.77;;;1.60;99.90;;;;;;5031484;28;20029;-46
2023/01/19 09:40:30;;;;;;;30.07;15.87;;;1.70;99.90;;;;;;5031659;28;20064;-47
2023/01/19 09:43:12;;;;;;;32.73;16.70;;;1.70;99.90;;;;;;5031488;28;20033;-47
2023/01/19 09:45:50;;;;;;;33.37;17.00;;;1.70;99.90;;;;;;5031392;28;20043;-46
2023/01/19 09:48:28;;;;;;;31.60;16.80;;;1.80;99.90;;;;;;5030217;28;20083;-51
2023/01/19 09:50:57;;;;;;;32.70;17.00;;;1.80;99.90;;;;;;5031464;28;20033;-46
2023/01/19 09:53:44;;;;;;;33.72;17.17;;;1.80;99.90;;;;;;5030711;28;20029;-47
2023/01/19 09:56:14;;;;;;;36.27;17.63;;;1.80;99.90;;;;;;5031383;28;20033;-47
2023/01/19 09:58:41;;;;;;;34.77;18.77;;;1.90;99.90;;;;;;5031120;28;20108;-49
2023/01/19 10:01:36;;;;;;;31.30;17.73;;;1.90;99.90;;;;;;5031208;28;20029;-46
2023/01/19 10:04:30;;;;;;;37.17;18.53;;;1.90;99.90;;;;;;5029526;28;20046;-45
2023/01/19 10:07:18;;;;;;;36.40;18.53;;;1.80;99.90;;;;;;5031080;28;20033;-49
2023/01/19 10:09:49;;;;;;;39.70;18.45;;;1.90;99.90;;;;;;5031158;28;20117;-46
2023/01/19 10:12:42;;;;;;;42.03;20.80;;;1.80;99.90;;;;;;5031020;28;20033;-48
2023/01/19 10:15:55;;;;;;;41.00;19.33;;;1.80;99.90;;;;;;5031243;28;20064;-46
2023/01/19 10:18:34;;;;;;;43.10;18.77;;;1.90;99.90;;;;;;4969327;28;20070;-48
2023/01/19 10:21:32;;;;;;;47.67;21.38;;;1.90;99.90;;;;;;5023901;28;20185;-47
2023/01/19 10:24:06;;;;;;;43.03;19.97;;;1.90;99.90;;;;;;5030606;28;20045;-47
2023/01/19 10:26:42;;;;;;;41.20;19.37;;;2.00;99.90;;;;;;5030640;28;20029;-47
2023/01/19 10:29:25;;;;;;;44.00;18.60;;;2.00;99.90;;;;;;5031090;28;20044;-48
2023/01/19 10:32:03;;;;;;;44.10;19.87;;;2.00;99.90;;;;;;5030913;28;20112;-47
2023/01/19 10:34:28;;;;;;;47.33;18.90;;;2.00;99.90;;;;;;5031071;28;20030;-46
2023/01/19 10:37:01;;;;;;;45.23;21.40;;;2.10;99.90;;;;;;5030441;28;20113;-48
2023/01/19 10:39:27;;;;;;;49.13;20.40;;;2.10;99.90;;;;;;5030707;28;20120;-45
2023/01/19 10:41:53;;;;;;;47.20;20.10;;;2.10;99.90;;;;;;5030760;28;20113;-48
2023/01/19 10:44:27;;;;;;;44.67;19.53;;;2.20;99.90;;;;;;5030364;28;20121;-46
2023/01/19 10:46:55;;;;;;;38.67;19.03;;;2.30;99.90;;;;;;5030483;28;20037;-46
2023/01/19 10:49:35;;;;;;;41.17;18.97;;;2.50;99.90;;;;;;5030533;28;20037;-48
2023/01/19 10:52:02;;;;;;;45.67;19.70;;;2.60;99.90;;;;;;5030597;28;20044;-46
2023/01/19 10:54:30;;;;;;;39.63;18.43;;;2.60;99.90;;;;;;5030367;28;20069;-48
2023/01/19 10:57:06;;;;;;;43.03;19.53;;;2.60;99.90;;;;;;5029202;28;20026;-46
2023/01/19 10:59:49;;;;;;;42.17;18.93;;;2.60;99.90;;;;;;5030894;28;20029;-46
2023/01/19 11:02:29;;;;;;;43.20;18.83;;;2.60;99.90;;;;;;5030428;28;20022;-46
2023/01/19 11:05:00;;;;;;;42.97;18.50;;;2.60;99.90;;;;;;5032586;28;20036;-47
2023/01/19 11:07:30;;;;;;;42.03;18.30;;;2.60;99.90;;;;;;5034552;28;20439;-47
2023/01/19 11:10:16;;;;;;;48.00;19.70;;;2.60;99.90;;;;;;5034543;28;20031;-49
2023/01/19 11:12:54;;;;;;;49.70;19.83;;;2.50;99.90;;;;;;5034474;28;20108;-45
2023/01/19 11:15:34;;;;;;;46.87;18.73;;;2.50;99.90;;;;;;5034130;28;20041;-46
2023/01/19 11:18:04;;;;;;;47.07;18.97;;;2.50;99.90;;;;;;5034076;28;20485;-48
2023/01/19 11:20:53;;;;;;;43.30;18.77;;;2.50;99.90;;;;;;5034362;28;20037;-45
2023/01/19 11:23:27;;;;;;;44.27;19.43;;;2.40;99.90;;;;;;5033978;28;20037;-46
2023/01/19 11:26:01;;;;;;;48.30;20.23;;;2.40;99.90;;;;;;5034235;28;20041;-46
2023/01/19 11:28:31;;;;;;;43.17;18.87;;;2.40;99.90;;;;;;5034145;28;20033;-52
2023/01/19 11:31:00;;;;;;;47.23;19.13;;;2.40;99.90;;;;;;5034244;28;20036;-49
2023/01/19 11:33:36;;;;;;;48.45;20.02;;;2.40;99.90;;;;;;5033710;28;20033;-51
2023/01/19 11:36:23;;;;;;;51.20;20.60;;;2.40;99.90;;;;;;5034175;28;20453;-49
2023/01/19 11:38:58;;;;;;;49.87;21.00;;;2.40;99.90;;;;;;5033961;28;20029;-51
2023/01/19 11:41:28;;;;;;;48.83;21.13;;;2.40;99.90;;;;;;5033969;28;20386;-46
2023/01/19 11:44:01;;;;;;;48.30;21.43;;;2.50;99.90;;;;;;5033610;28;20033;-51
2023/01/19 11:46:34;;;;;;;48.83;19.80;;;2.50;99.90;;;;;;5033699;28;20026;-49
2023/01/19 11:49:07;;;;;;;48.77;19.60;;;2.50;99.90;;;;;;5033804;28;20471;-49
2023/01/19 11:51:52;;;;;;;50.93;20.20;;;2.50;99.90;;;;;;5033834;28;20083;-51
2023/01/19 11:54:24;;;;;;;43.30;19.37;;;2.60;99.90;;;;;;5033360;28;20033;-53
2023/01/19 11:56:52;;;;;;;46.90;19.63;;;2.60;99.90;;;;;;5033718;28;20079;-48
2023/01/19 11:59:20;;;;;;;54.73;21.17;;;2.60;99.90;;;;;;5033493;28;20399;-45
2023/01/19 12:01:53;;;;;;;48.47;20.73;;;2.60;99.90;;;;;;5033563;28;20437;-48
2023/01/19 12:04:29;;;;;;;44.83;20.40;;;2.60;99.90;;;;;;5033322;28;20038;-48
2023/01/19 12:06:58;;;;;;;48.40;19.30;;;2.60;99.90;;;;;;5033278;28;20367;-47
2023/01/19 12:09:29;;;;;;;44.17;19.85;;;2.60;99.90;;;;;;5033555;28;20033;-46
2023/01/19 12:12:34;;;;;;;45.60;19.60;;;2.60;99.90;;;;;;5033493;28;20040;-47
2023/01/19 12:15:29;;;;;;;46.00;19.03;;;2.70;99.90;;;;;;5032446;28;20056;-50
2023/01/19 12:17:58;;;;;;;44.33;18.60;;;2.70;99.90;;;;;;5033154;28;20026;-48
2023/01/19 12:20:35;;;;;;;48.10;19.40;;;2.80;99.90;;;;;;5033587;28;20105;-48
2023/01/19 12:23:06;;;;;;;41.87;17.47;;;2.90;99.90;;;;;;5033156;28;20470;-46
2023/01/19 12:25:52;;;;;;;45.70;18.03;;;3.00;99.90;;;;;;5032836;28;20453;-49
2023/01/19 12:28:22;;;;;;;38.67;18.07;;;3.00;99.90;;;;;;5032671;28;20041;-48
2023/01/19 12:30:50;;;;;;;35.80;17.50;;;2.90;99.90;;;;;;5033004;28;20390;-48
2023/01/19 12:33:21;;;;;;;38.10;17.40;;;2.90;99.90;;;;;;5032853;28;20034;-49
2023/01/19 12:35:56;;;;;;;46.47;18.50;;;2.90;99.90;;;;;;5032802;28;20467;-49
2023/01/19 12:38:40;;;;;;;40.80;18.73;;;2.90;99.90;;;;;;5032654;28;20113;-47
2023/01/19 12:41:28;;;;;;;39.30;17.63;;;2.90;99.90;;;;;;5032927;28;20033;-49
2023/01/19 12:44:15;;;;;;;41.13;17.90;;;2.90;99.90;;;;;;5032637;28;20144;-47
2023/01/19 12:46:48;;;;;;;38.00;18.10;;;2.90;99.90;;;;;;5032712;28;20029;-51
2023/01/19 12:49:26;;;;;;;38.20;17.77;;;2.90;99.90;;;;;;5032995;28;20044;-48
2023/01/19 12:52:29;;;;;;;39.67;17.73;;;2.90;99.90;;;;;;5032722;28;20041;-50
2023/01/19 12:55:13;;;;;;;39.23;17.07;;;3.00;99.90;;;;;;5032624;28;20034;-48
2023/01/19 12:57:54;;;;;;;36.23;17.10;;;3.10;99.90;;;;;;5032411;28;20029;-48
2023/01/19 13:00:22;;;;;;;34.77;16.23;;;3.10;99.90;;;;;;5032504;28;20034;-51
2023/01/19 13:03:17;;;;;;;32.50;16.23;;;3.20;99.90;;;;;;5032511;28;20033;-50